Main page
METAR-TAF:

METAR-TAF

Airports :

Volgograd International Airport

Volgograd, Russia

latitude: 48-47N, longitude: 044-22E, elevation: 145 m

Current weather observation

The report was made 31 minutes ago, at 22:00 UTC
Wind 12 kt from the East/Northeast
Temperature 22°C
Humidity 69%
Pressure 1012 hPa
Visibility 10 km or more
no clouds below 1500 m and no cumulonimbus

METAR: URWW 162200Z 06006MPS CAVOK 22/16 Q1012 WS R06 R06/010070 NOSIG

Time: 02:31 (22:31 UTC)

Forecast

The report was made 2 hours and 32 minutes ago, at 19:59 UTC
Forecast valid from 16 at 21 UTC to 17 at 06 UTC
Wind 6 kt from the Northeast with gusts up to 16 kt
Visibility 10 km or more
Scattered clouds at a height of 2000 ft, Cumulonimbus.
Temporary
from 16 at 21 UTC to 17 at 03 UTC
Wind 6 kt from the East/Northeast with gusts up to 19 kt
Probability 40% :
Temporary
from 16 at 21 UTC to 17 at 03 UTC
thunderstorm, light rain, hail

TAF: URWW 161959Z 1621/1706 04003G08MPS 9999 SCT020CB TEMPO 1621/1703 07003G10MPS PROB40 TEMPO 1621/1703 -TSRAGR

Weather observations and forecasts of more than 4000 airports (METAR and TAF reports).

The available stations are represented by yellow and red dots on the map.

Hover mouse over dot to see the name of the station.

Then click to see weather observations and forecasts.

To change the map : click on the green buttons with a black cross to zoom in, on the green button with a dash to zoom out, or on the green arrows for adjacent maps.


METAR-TAF: